sensor_id;sensor_type;location;lat;lon;timestamp;P1;durP1;ratioP1;P2;durP2;ratioP2
43086;SDS011;28708;52.224;6.924;2022-11-04T00:01:49;7.13;;;4.03;;
43086;SDS011;28708;52.224;6.924;2022-11-04T00:04:16;5.77;;;3.43;;
43086;SDS011;28708;52.224;6.924;2022-11-04T00:06:43;5.00;;;3.33;;
43086;SDS011;28708;52.224;6.924;2022-11-04T00:09:10;4.37;;;2.97;;
43086;SDS011;28708;52.224;6.924;2022-11-04T00:11:39;4.18;;;2.70;;
43086;SDS011;28708;52.224;6.924;2022-11-04T00:14:23;5.07;;;2.97;;
43086;SDS011;28708;52.224;6.924;2022-11-04T00:16:49;5.87;;;2.77;;
43086;SDS011;28708;52.224;6.924;2022-11-04T00:19:33;4.37;;;2.17;;
43086;SDS011;28708;52.224;6.924;2022-11-04T00:22:17;6.23;;;2.80;;
43086;SDS011;28708;52.224;6.924;2022-11-04T00:25:02;3.73;;;2.20;;
43086;SDS011;28708;52.224;6.924;2022-11-04T00:27:46;4.20;;;2.60;;
43086;SDS011;28708;52.224;6.924;2022-11-04T00:30:31;6.37;;;2.50;;
43086;SDS011;28708;52.224;6.924;2022-11-04T00:32:57;3.73;;;2.50;;
43086;SDS011;28708;52.224;6.924;2022-11-04T00:35:47;6.03;;;2.90;;
43086;SDS011;28708;52.224;6.924;2022-11-04T00:38:14;5.27;;;3.67;;
43086;SDS011;28708;52.224;6.924;2022-11-04T00:40:39;5.40;;;3.50;;
43086;SDS011;28708;52.224;6.924;2022-11-04T00:43:05;7.57;;;5.23;;
43086;SDS011;28708;52.224;6.924;2022-11-04T00:45:31;7.70;;;5.77;;
43086;SDS011;28708;52.224;6.924;2022-11-04T00:47:57;8.53;;;6.40;;
43086;SDS011;28708;52.224;6.924;2022-11-04T00:50:22;9.00;;;6.30;;
43086;SDS011;28708;52.224;6.924;2022-11-04T00:52:48;10.80;;;6.63;;
43086;SDS011;28708;52.224;6.924;2022-11-04T00:55:14;10.97;;;8.27;;
43086;SDS011;28708;52.224;6.924;2022-11-04T00:57:39;8.47;;;7.47;;
43086;SDS011;28708;52.224;6.924;2022-11-04T01:00:05;12.47;;;7.33;;
43086;SDS011;28708;52.224;6.924;2022-11-04T01:02:31;10.40;;;8.07;;
43086;SDS011;28708;52.224;6.924;2022-11-04T01:04:57;12.60;;;8.60;;
43086;SDS011;28708;52.224;6.924;2022-11-04T01:07:22;10.87;;;7.90;;
43086;SDS011;28708;52.224;6.924;2022-11-04T01:09:48;9.87;;;8.10;;
43086;SDS011;28708;52.224;6.924;2022-11-04T01:12:14;12.10;;;8.40;;
43086;SDS011;28708;52.224;6.924;2022-11-04T01:14:41;12.33;;;8.60;;
43086;SDS011;28708;52.224;6.924;2022-11-04T01:17:07;12.03;;;8.37;;
43086;SDS011;28708;52.224;6.924;2022-11-04T01:19:33;13.53;;;9.73;;
43086;SDS011;28708;52.224;6.924;2022-11-04T01:21:58;14.97;;;10.27;;
43086;SDS011;28708;52.224;6.924;2022-11-04T01:24:24;12.33;;;10.63;;
43086;SDS011;28708;52.224;6.924;2022-11-04T01:26:50;16.87;;;12.70;;
43086;SDS011;28708;52.224;6.924;2022-11-04T01:29:16;17.50;;;13.47;;
43086;SDS011;28708;52.224;6.924;2022-11-04T01:31:41;14.40;;;11.83;;
43086;SDS011;28708;52.224;6.924;2022-11-04T01:34:07;16.30;;;12.40;;
43086;SDS011;28708;52.224;6.924;2022-11-04T01:36:33;14.07;;;12.40;;
43086;SDS011;28708;52.224;6.924;2022-11-04T01:38:59;14.40;;;12.47;;
43086;SDS011;28708;52.224;6.924;2022-11-04T01:41:26;16.50;;;13.97;;
43086;SDS011;28708;52.224;6.924;2022-11-04T01:43:56;17.40;;;13.93;;
43086;SDS011;28708;52.224;6.924;2022-11-04T01:46:38;17.50;;;14.53;;
43086;SDS011;28708;52.224;6.924;2022-11-04T01:49:11;28.67;;;15.07;;
43086;SDS011;28708;52.224;6.924;2022-11-04T01:51:59;19.80;;;15.53;;
43086;SDS011;28708;52.224;6.924;2022-11-04T01:54:28;18.67;;;15.30;;
43086;SDS011;28708;52.224;6.924;2022-11-04T01:56:55;20.53;;;16.43;;
43086;SDS011;28708;52.224;6.924;2022-11-04T01:59:24;16.17;;;14.47;;
43086;SDS011;28708;52.224;6.924;2022-11-04T02:01:54;17.40;;;14.00;;
43086;SDS011;28708;52.224;6.924;2022-11-04T02:04:20;18.50;;;14.17;;
43086;SDS011;28708;52.224;6.924;2022-11-04T02:07:02;15.70;;;14.10;;
43086;SDS011;28708;52.224;6.924;2022-11-04T02:09:30;16.70;;;13.80;;
43086;SDS011;28708;52.224;6.924;2022-11-04T02:11:57;14.37;;;12.50;;
43086;SDS011;28708;52.224;6.924;2022-11-04T02:14:42;16.60;;;14.13;;
43086;SDS011;28708;52.224;6.924;2022-11-04T02:17:27;17.27;;;12.87;;
43086;SDS011;28708;52.224;6.924;2022-11-04T02:36:21;13.50;;;11.17;;
43086;SDS011;28708;52.224;6.924;2022-11-04T02:39:10;10.37;;;9.27;;
43086;SDS011;28708;52.224;6.924;2022-11-04T02:41:52;13.67;;;9.23;;
43086;SDS011;28708;52.224;6.924;2022-11-04T02:47:07;12.70;;;9.10;;
43086;SDS011;28708;52.224;6.924;2022-11-04T02:49:45;12.63;;;9.73;;
43086;SDS011;28708;52.224;6.924;2022-11-04T02:52:18;13.40;;;9.33;;
43086;SDS011;28708;52.224;6.924;2022-11-04T02:54:57;10.33;;;9.03;;
43086;SDS011;28708;52.224;6.924;2022-11-04T02:57:25;12.87;;;8.60;;
43086;SDS011;28708;52.224;6.924;2022-11-04T03:02:34;11.33;;;9.00;;
43086;SDS011;28708;52.224;6.924;2022-11-04T03:05:04;11.97;;;8.90;;
43086;SDS011;28708;52.224;6.924;2022-11-04T03:07:33;12.23;;;10.23;;
43086;SDS011;28708;52.224;6.924;2022-11-04T03:10:07;11.60;;;10.40;;
43086;SDS011;28708;52.224;6.924;2022-11-04T03:12:43;13.97;;;11.37;;
43086;SDS011;28708;52.224;6.924;2022-11-04T03:15:23;15.73;;;11.00;;
43086;SDS011;28708;52.224;6.924;2022-11-04T03:17:54;14.53;;;11.57;;
43086;SDS011;28708;52.224;6.924;2022-11-04T03:20:30;16.23;;;12.53;;
43086;SDS011;28708;52.224;6.924;2022-11-04T03:22:56;18.33;;;13.53;;
43086;SDS011;28708;52.224;6.924;2022-11-04T03:25:25;19.93;;;13.73;;
43086;SDS011;28708;52.224;6.924;2022-11-04T03:30:37;16.40;;;13.60;;
43086;SDS011;28708;52.224;6.924;2022-11-04T03:33:27;18.37;;;13.20;;
43086;SDS011;28708;52.224;6.924;2022-11-04T03:36:09;20.57;;;14.97;;
43086;SDS011;28708;52.224;6.924;2022-11-04T03:38:35;22.20;;;16.30;;
43086;SDS011;28708;52.224;6.924;2022-11-04T03:41:02;26.50;;;18.00;;
43086;SDS011;28708;52.224;6.924;2022-11-04T03:43:35;23.77;;;19.23;;
43086;SDS011;28708;52.224;6.924;2022-11-04T03:46:03;23.57;;;17.77;;
43086;SDS011;28708;52.224;6.924;2022-11-04T03:48:30;27.33;;;19.33;;
43086;SDS011;28708;52.224;6.924;2022-11-04T03:50:57;23.33;;;19.50;;
43086;SDS011;28708;52.224;6.924;2022-11-04T03:53:23;23.90;;;19.37;;
43086;SDS011;28708;52.224;6.924;2022-11-04T03:58:58;25.50;;;20.70;;
43086;SDS011;28708;52.224;6.924;2022-11-04T04:01:49;28.40;;;21.50;;
43086;SDS011;28708;52.224;6.924;2022-11-04T04:04:34;27.27;;;21.73;;
43086;SDS011;28708;52.224;6.924;2022-11-04T04:07:10;28.60;;;22.93;;
43086;SDS011;28708;52.224;6.924;2022-11-04T04:09:49;30.07;;;22.63;;
43086;SDS011;28708;52.224;6.924;2022-11-04T04:12:19;31.07;;;22.87;;
43086;SDS011;28708;52.224;6.924;2022-11-04T04:14:53;31.63;;;24.80;;
43086;SDS011;28708;52.224;6.924;2022-11-04T04:20:03;29.60;;;23.17;;
43086;SDS011;28708;52.224;6.924;2022-11-04T04:22:45;30.33;;;23.67;;
43086;SDS011;28708;52.224;6.924;2022-11-04T04:25:16;29.77;;;22.77;;
43086;SDS011;28708;52.224;6.924;2022-11-04T04:28:01;32.10;;;24.33;;
43086;SDS011;28708;52.224;6.924;2022-11-04T04:30:29;28.63;;;23.87;;
43086;SDS011;28708;52.224;6.924;2022-11-04T04:32:56;31.13;;;23.37;;
43086;SDS011;28708;52.224;6.924;2022-11-04T04:35:33;30.10;;;22.50;;
43086;SDS011;28708;52.224;6.924;2022-11-04T04:41:09;33.90;;;23.70;;
43086;SDS011;28708;52.224;6.924;2022-11-04T04:43:58;33.03;;;24.20;;
43086;SDS011;28708;52.224;6.924;2022-11-04T04:46:42;29.27;;;23.53;;
43086;SDS011;28708;52.224;6.924;2022-11-04T04:49:14;30.23;;;23.60;;
43086;SDS011;28708;52.224;6.924;2022-11-04T04:51:41;30.70;;;24.37;;
43086;SDS011;28708;52.224;6.924;2022-11-04T04:54:09;29.80;;;24.92;;
43086;SDS011;28708;52.224;6.924;2022-11-04T04:56:35;33.53;;;24.67;;
43086;SDS011;28708;52.224;6.924;2022-11-04T04:59:01;34.57;;;25.03;;
43086;SDS011;28708;52.224;6.924;2022-11-04T05:01:26;31.77;;;24.73;;
43086;SDS011;28708;52.224;6.924;2022-11-04T05:03:55;30.70;;;24.40;;
43086;SDS011;28708;52.224;6.924;2022-11-04T05:06:21;34.20;;;26.17;;
43086;SDS011;28708;52.224;6.924;2022-11-04T05:08:46;34.67;;;25.93;;
43086;SDS011;28708;52.224;6.924;2022-11-04T05:11:12;32.97;;;25.47;;
43086;SDS011;28708;52.224;6.924;2022-11-04T05:13:38;32.87;;;24.97;;
43086;SDS011;28708;52.224;6.924;2022-11-04T05:16:04;37.30;;;27.13;;
43086;SDS011;28708;52.224;6.924;2022-11-04T05:18:32;35.80;;;26.50;;
43086;SDS011;28708;52.224;6.924;2022-11-04T05:21:01;35.17;;;25.67;;
43086;SDS011;28708;52.224;6.924;2022-11-04T05:23:31;33.23;;;25.10;;
43086;SDS011;28708;52.224;6.924;2022-11-04T05:25:58;37.40;;;25.33;;
43086;SDS011;28708;52.224;6.924;2022-11-04T05:28:24;35.73;;;26.57;;
43086;SDS011;28708;52.224;6.924;2022-11-04T05:30:50;39.57;;;26.60;;
43086;SDS011;28708;52.224;6.924;2022-11-04T05:33:15;39.90;;;26.93;;
43086;SDS011;28708;52.224;6.924;2022-11-04T05:35:41;37.07;;;25.97;;
43086;SDS011;28708;52.224;6.924;2022-11-04T05:38:07;31.97;;;25.00;;
43086;SDS011;28708;52.224;6.924;2022-11-04T05:40:32;35.83;;;27.30;;
43086;SDS011;28708;52.224;6.924;2022-11-04T05:42:58;33.83;;;25.70;;
43086;SDS011;28708;52.224;6.924;2022-11-04T05:45:24;38.13;;;26.53;;
43086;SDS011;28708;52.224;6.924;2022-11-04T05:48:00;36.10;;;25.87;;
43086;SDS011;28708;52.224;6.924;2022-11-04T05:50:28;33.70;;;26.37;;
43086;SDS011;28708;52.224;6.924;2022-11-04T05:52:57;36.77;;;26.40;;
43086;SDS011;28708;52.224;6.924;2022-11-04T05:55:24;36.13;;;24.35;;
43086;SDS011;28708;52.224;6.924;2022-11-04T05:57:50;39.97;;;25.30;;
43086;SDS011;28708;52.224;6.924;2022-11-04T06:00:16;33.47;;;25.20;;
43086;SDS011;28708;52.224;6.924;2022-11-04T06:02:42;33.70;;;24.67;;
43086;SDS011;28708;52.224;6.924;2022-11-04T06:05:08;39.67;;;26.00;;
43086;SDS011;28708;52.224;6.924;2022-11-04T06:07:34;34.43;;;25.37;;
43086;SDS011;28708;52.224;6.924;2022-11-04T06:09:59;37.77;;;26.90;;
43086;SDS011;28708;52.224;6.924;2022-11-04T06:12:25;39.93;;;25.73;;
43086;SDS011;28708;52.224;6.924;2022-11-04T06:14:51;35.13;;;25.93;;
43086;SDS011;28708;52.224;6.924;2022-11-04T06:17:18;38.07;;;25.97;;
43086;SDS011;28708;52.224;6.924;2022-11-04T06:19:45;32.97;;;24.70;;
43086;SDS011;28708;52.224;6.924;2022-11-04T06:22:12;35.70;;;25.60;;
43086;SDS011;28708;52.224;6.924;2022-11-04T06:24:39;34.53;;;25.00;;
43086;SDS011;28708;52.224;6.924;2022-11-04T06:27:06;35.40;;;24.30;;
43086;SDS011;28708;52.224;6.924;2022-11-04T06:29:32;32.60;;;23.77;;
43086;SDS011;28708;52.224;6.924;2022-11-04T06:31:58;37.63;;;23.73;;
43086;SDS011;28708;52.224;6.924;2022-11-04T06:34:23;39.27;;;24.13;;
43086;SDS011;28708;52.224;6.924;2022-11-04T06:36:49;34.67;;;23.63;;
43086;SDS011;28708;52.224;6.924;2022-11-04T06:39:15;31.67;;;23.60;;
43086;SDS011;28708;52.224;6.924;2022-11-04T06:41:41;30.53;;;22.40;;
43086;SDS011;28708;52.224;6.924;2022-11-04T06:44:06;33.20;;;22.47;;
43086;SDS011;28708;52.224;6.924;2022-11-04T06:46:39;28.73;;;21.03;;
43086;SDS011;28708;52.224;6.924;2022-11-04T06:49:08;28.30;;;19.53;;
43086;SDS011;28708;52.224;6.924;2022-11-04T06:54:02;27.97;;;19.03;;
43086;SDS011;28708;52.224;6.924;2022-11-04T06:56:28;26.97;;;19.23;;
43086;SDS011;28708;52.224;6.924;2022-11-04T06:58:54;28.43;;;19.23;;
43086;SDS011;28708;52.224;6.924;2022-11-04T07:01:20;31.47;;;18.03;;
43086;SDS011;28708;52.224;6.924;2022-11-04T07:03:53;25.23;;;16.03;;
43086;SDS011;28708;52.224;6.924;2022-11-04T07:06:20;25.40;;;15.13;;
43086;SDS011;28708;52.224;6.924;2022-11-04T07:08:47;22.80;;;15.23;;
43086;SDS011;28708;52.224;6.924;2022-11-04T07:11:16;22.63;;;14.63;;
43086;SDS011;28708;52.224;6.924;2022-11-04T07:13:43;26.23;;;16.00;;
43086;SDS011;28708;52.224;6.924;2022-11-04T07:16:09;22.60;;;14.10;;
43086;SDS011;28708;52.224;6.924;2022-11-04T07:18:35;21.00;;;14.13;;
43086;SDS011;28708;52.224;6.924;2022-11-04T07:21:00;21.83;;;14.27;;
43086;SDS011;28708;52.224;6.924;2022-11-04T07:23:27;22.70;;;14.00;;
43086;SDS011;28708;52.224;6.924;2022-11-04T07:25:52;23.07;;;13.73;;
43086;SDS011;28708;52.224;6.924;2022-11-04T07:28:18;26.20;;;13.90;;
43086;SDS011;28708;52.224;6.924;2022-11-04T07:30:44;19.97;;;12.77;;
43086;SDS011;28708;52.224;6.924;2022-11-04T07:33:10;24.40;;;13.80;;
43086;SDS011;28708;52.224;6.924;2022-11-04T07:35:36;19.70;;;12.27;;
43086;SDS011;28708;52.224;6.924;2022-11-04T07:38:02;21.07;;;12.37;;
43086;SDS011;28708;52.224;6.924;2022-11-04T07:40:29;23.80;;;12.50;;
43086;SDS011;28708;52.224;6.924;2022-11-04T07:42:58;25.33;;;13.63;;
43086;SDS011;28708;52.224;6.924;2022-11-04T07:45:34;24.00;;;13.60;;
43086;SDS011;28708;52.224;6.924;2022-11-04T07:47:59;23.03;;;12.97;;
43086;SDS011;28708;52.224;6.924;2022-11-04T07:50:25;21.93;;;12.13;;
43086;SDS011;28708;52.224;6.924;2022-11-04T07:52:50;22.23;;;12.63;;
43086;SDS011;28708;52.224;6.924;2022-11-04T07:55:16;21.97;;;12.00;;
43086;SDS011;28708;52.224;6.924;2022-11-04T07:57:45;23.80;;;16.17;;
43086;SDS011;28708;52.224;6.924;2022-11-04T08:00:12;25.33;;;12.97;;
43086;SDS011;28708;52.224;6.924;2022-11-04T08:02:39;25.80;;;13.00;;
43086;SDS011;28708;52.224;6.924;2022-11-04T08:05:06;21.10;;;12.03;;
43086;SDS011;28708;52.224;6.924;2022-11-04T08:07:32;21.00;;;12.27;;
43086;SDS011;28708;52.224;6.924;2022-11-04T08:09:58;19.47;;;12.60;;
43086;SDS011;28708;52.224;6.924;2022-11-04T08:12:23;23.80;;;13.27;;
43086;SDS011;28708;52.224;6.924;2022-11-04T08:14:49;20.67;;;13.20;;
43086;SDS011;28708;52.224;6.924;2022-11-04T08:17:15;21.40;;;12.97;;
43086;SDS011;28708;52.224;6.924;2022-11-04T08:19:41;26.40;;;15.13;;
43086;SDS011;28708;52.224;6.924;2022-11-04T08:22:07;26.50;;;15.20;;
43086;SDS011;28708;52.224;6.924;2022-11-04T08:24:33;27.20;;;15.87;;
43086;SDS011;28708;52.224;6.924;2022-11-04T08:26:59;23.57;;;13.97;;
43086;SDS011;28708;52.224;6.924;2022-11-04T08:29:25;27.47;;;12.77;;
43086;SDS011;28708;52.224;6.924;2022-11-04T08:31:51;24.33;;;13.53;;
43086;SDS011;28708;52.224;6.924;2022-11-04T08:34:17;27.70;;;15.07;;
43086;SDS011;28708;52.224;6.924;2022-11-04T08:36:42;24.13;;;14.57;;
43086;SDS011;28708;52.224;6.924;2022-11-04T08:39:09;22.33;;;14.77;;
43086;SDS011;28708;52.224;6.924;2022-11-04T08:41:37;22.47;;;12.53;;
43086;SDS011;28708;52.224;6.924;2022-11-04T08:44:05;20.58;;;13.25;;
43086;SDS011;28708;52.224;6.924;2022-11-04T08:46:34;23.03;;;11.57;;
43086;SDS011;28708;52.224;6.924;2022-11-04T08:49:02;22.47;;;11.37;;
43086;SDS011;28708;52.224;6.924;2022-11-04T08:51:29;21.50;;;10.27;;
43086;SDS011;28708;52.224;6.924;2022-11-04T08:53:56;19.63;;;10.33;;
43086;SDS011;28708;52.224;6.924;2022-11-04T08:56:23;19.70;;;10.27;;
43086;SDS011;28708;52.224;6.924;2022-11-04T08:58:51;19.77;;;10.00;;
43086;SDS011;28708;52.224;6.924;2022-11-04T09:01:17;15.00;;;9.93;;
43086;SDS011;28708;52.224;6.924;2022-11-04T09:03:46;17.43;;;9.07;;
43086;SDS011;28708;52.224;6.924;2022-11-04T09:06:13;22.63;;;9.50;;
43086;SDS011;28708;52.224;6.924;2022-11-04T09:08:44;18.00;;;8.67;;
43086;SDS011;28708;52.224;6.924;2022-11-04T09:11:12;19.97;;;8.70;;
43086;SDS011;28708;52.224;6.924;2022-11-04T09:13:38;16.87;;;8.30;;
43086;SDS011;28708;52.224;6.924;2022-11-04T09:16:05;17.43;;;9.63;;
43086;SDS011;28708;52.224;6.924;2022-11-04T09:18:31;18.40;;;10.33;;
43086;SDS011;28708;52.224;6.924;2022-11-04T09:21:00;23.47;;;9.80;;
43086;SDS011;28708;52.224;6.924;2022-11-04T09:23:27;16.00;;;9.53;;
43086;SDS011;28708;52.224;6.924;2022-11-04T09:25:53;16.90;;;9.10;;
43086;SDS011;28708;52.224;6.924;2022-11-04T09:28:22;15.70;;;8.57;;
43086;SDS011;28708;52.224;6.924;2022-11-04T09:30:49;19.80;;;9.93;;
43086;SDS011;28708;52.224;6.924;2022-11-04T09:33:15;16.37;;;7.60;;
43086;SDS011;28708;52.224;6.924;2022-11-04T09:35:41;15.97;;;8.17;;
43086;SDS011;28708;52.224;6.924;2022-11-04T09:38:06;12.73;;;6.77;;
43086;SDS011;28708;52.224;6.924;2022-11-04T09:40:33;13.30;;;7.03;;
43086;SDS011;28708;52.224;6.924;2022-11-04T09:45:52;18.47;;;8.40;;
43086;SDS011;28708;52.224;6.924;2022-11-04T09:48:27;15.30;;;7.10;;
43086;SDS011;28708;52.224;6.924;2022-11-04T09:50:58;12.87;;;7.00;;
43086;SDS011;28708;52.224;6.924;2022-11-04T09:53:39;15.70;;;7.18;;
43086;SDS011;28708;52.224;6.924;2022-11-04T09:58:49;20.40;;;8.05;;
43086;SDS011;28708;52.224;6.924;2022-11-04T10:18:17;17.87;;;7.03;;
43086;SDS011;28708;52.224;6.924;2022-11-04T10:23:36;15.30;;;6.25;;
43086;SDS011;28708;52.224;6.924;2022-11-04T10:28:59;13.37;;;5.77;;
43086;SDS011;28708;52.224;6.924;2022-11-04T10:34:04;12.10;;;5.20;;
43086;SDS011;28708;52.224;6.924;2022-11-04T10:36:33;9.77;;;4.78;;
43086;SDS011;28708;52.224;6.924;2022-11-04T10:39:01;12.90;;;5.07;;
43086;SDS011;28708;52.224;6.924;2022-11-04T10:41:37;12.93;;;4.73;;
43086;SDS011;28708;52.224;6.924;2022-11-04T10:47:13;11.83;;;4.97;;
43086;SDS011;28708;52.224;6.924;2022-11-04T10:49:59;11.67;;;4.57;;
43086;SDS011;28708;52.224;6.924;2022-11-04T10:52:32;13.63;;;5.50;;
43086;SDS011;28708;52.224;6.924;2022-11-04T10:55:02;14.90;;;5.67;;
43086;SDS011;28708;52.224;6.924;2022-11-04T10:57:38;16.47;;;6.60;;
43086;SDS011;28708;52.224;6.924;2022-11-04T11:00:04;18.60;;;5.80;;
43086;SDS011;28708;52.224;6.924;2022-11-04T11:07:44;17.43;;;5.70;;
43086;SDS011;28708;52.224;6.924;2022-11-04T11:10:29;17.53;;;6.70;;
43086;SDS011;28708;52.224;6.924;2022-11-04T11:13:00;18.73;;;8.23;;
43086;SDS011;28708;52.224;6.924;2022-11-04T11:15:32;16.63;;;6.37;;
43086;SDS011;28708;52.224;6.924;2022-11-04T11:21:02;15.87;;;6.50;;
43086;SDS011;28708;52.224;6.924;2022-11-04T11:23:45;15.63;;;6.70;;
43086;SDS011;28708;52.224;6.924;2022-11-04T11:26:13;13.50;;;5.80;;
43086;SDS011;28708;52.224;6.924;2022-11-04T11:28:46;15.23;;;5.80;;
43086;SDS011;28708;52.224;6.924;2022-11-04T11:31:14;14.83;;;6.33;;
43086;SDS011;28708;52.224;6.924;2022-11-04T11:33:58;14.10;;;5.03;;
43086;SDS011;28708;52.224;6.924;2022-11-04T11:36:30;11.23;;;5.07;;
43086;SDS011;28708;52.224;6.924;2022-11-04T11:38:59;10.53;;;4.60;;
43086;SDS011;28708;52.224;6.924;2022-11-04T11:41:30;13.23;;;5.50;;
43086;SDS011;28708;52.224;6.924;2022-11-04T11:44:04;12.83;;;5.53;;
43086;SDS011;28708;52.224;6.924;2022-11-04T11:46:48;13.13;;;5.90;;
43086;SDS011;28708;52.224;6.924;2022-11-04T11:49:23;13.47;;;5.47;;
43086;SDS011;28708;52.224;6.924;2022-11-04T11:51:53;17.40;;;6.20;;
43086;SDS011;28708;52.224;6.924;2022-11-04T11:54:22;18.27;;;6.23;;
43086;SDS011;28708;52.224;6.924;2022-11-04T11:56:58;16.30;;;6.17;;
43086;SDS011;28708;52.224;6.924;2022-11-04T12:04:40;11.57;;;5.90;;
43086;SDS011;28708;52.224;6.924;2022-11-04T12:07:24;16.17;;;7.13;;
43086;SDS011;28708;52.224;6.924;2022-11-04T12:10:19;18.33;;;6.33;;
43086;SDS011;28708;52.224;6.924;2022-11-04T12:13:18;15.83;;;7.30;;
43086;SDS011;28708;52.224;6.924;2022-11-04T12:21:12;13.43;;;5.93;;
43086;SDS011;28708;52.224;6.924;2022-11-04T12:32:20;14.90;;;6.53;;
43086;SDS011;28708;52.224;6.924;2022-11-04T12:38:13;12.93;;;6.15;;
43086;SDS011;28708;52.224;6.924;2022-11-04T12:44:04;14.60;;;7.70;;
43086;SDS011;28708;52.224;6.924;2022-11-04T12:46:43;16.10;;;8.47;;
43086;SDS011;28708;52.224;6.924;2022-11-04T12:52:17;15.73;;;8.53;;
43086;SDS011;28708;52.224;6.924;2022-11-04T12:57:40;17.13;;;8.67;;
43086;SDS011;28708;52.224;6.924;2022-11-04T13:00:17;16.23;;;9.00;;
43086;SDS011;28708;52.224;6.924;2022-11-04T13:03:03;16.93;;;9.37;;
43086;SDS011;28708;52.224;6.924;2022-11-04T13:05:53;13.70;;;8.80;;
43086;SDS011;28708;52.224;6.924;2022-11-04T13:11:26;17.37;;;8.70;;
43086;SDS011;28708;52.224;6.924;2022-11-04T13:14:02;16.23;;;8.80;;
43086;SDS011;28708;52.224;6.924;2022-11-04T13:16:29;14.47;;;8.60;;
43086;SDS011;28708;52.224;6.924;2022-11-04T13:18:58;16.45;;;9.60;;
43086;SDS011;28708;52.224;6.924;2022-11-04T13:21:26;13.43;;;8.20;;
43086;SDS011;28708;52.224;6.924;2022-11-04T13:24:03;18.43;;;8.60;;
43086;SDS011;28708;52.224;6.924;2022-11-04T13:26:44;16.00;;;8.87;;
43086;SDS011;28708;52.224;6.924;2022-11-04T13:29:11;15.87;;;8.40;;
